createdAt,value
2022-10-01T00:01:10.529Z,15.90
2022-10-01T00:03:38.351Z,16.10
2022-10-01T00:06:09.034Z,15.50
2022-10-01T00:08:37.154Z,15.43
2022-10-01T00:11:08.256Z,15.20
2022-10-01T00:13:36.486Z,14.30
2022-10-01T00:16:05.593Z,14.60
2022-10-01T00:18:35.678Z,15.10
2022-10-01T00:21:06.236Z,15.50
2022-10-01T00:23:33.735Z,15.70
2022-10-01T00:26:09.126Z,15.40
2022-10-01T00:28:36.836Z,16.07
2022-10-01T00:31:04.351Z,16.07
2022-10-01T00:33:34.339Z,16.00
2022-10-01T00:36:02.130Z,15.90
2022-10-01T00:38:29.889Z,15.20
2022-10-01T00:40:58.742Z,16.43
2022-10-01T00:43:27.492Z,15.53
2022-10-01T00:45:56.725Z,16.30
2022-10-01T00:48:25.995Z,16.07
2022-10-01T00:50:54.941Z,17.80
2022-10-01T00:53:22.799Z,16.83
2022-10-01T00:55:55.283Z,16.87
2022-10-01T00:58:23.401Z,16.07
2022-10-01T01:00:51.568Z,16.10
2022-10-01T01:03:19.937Z,15.97
2022-10-01T01:05:47.826Z,15.90
2022-10-01T01:08:17.250Z,17.03
2022-10-01T01:10:50.261Z,16.47
2022-10-01T01:13:22.068Z,16.10
2022-10-01T01:15:54.957Z,16.73
2022-10-01T01:18:24.976Z,17.93
2022-10-01T01:21:05.298Z,16.60
2022-10-01T01:23:41.783Z,16.50
2022-10-01T01:26:16.401Z,17.13
2022-10-01T01:28:48.331Z,16.73
2022-10-01T01:31:17.792Z,17.63
2022-10-01T01:33:47.301Z,16.50
2022-10-01T01:36:17.114Z,16.97
2022-10-01T01:38:47.507Z,16.30
2022-10-01T01:41:16.277Z,16.10
2022-10-01T01:43:46.715Z,16.30
2022-10-01T01:46:17.636Z,15.70
2022-10-01T01:48:47.597Z,16.10
2022-10-01T01:51:17.814Z,16.17
2022-10-01T01:53:45.736Z,16.53
2022-10-01T01:56:13.658Z,17.47
2022-10-01T01:58:41.334Z,17.37
2022-10-01T02:01:23.833Z,17.03
2022-10-01T02:03:52.845Z,17.10
2022-10-01T02:06:26.406Z,18.30
2022-10-01T02:08:58.047Z,18.23
2022-10-01T02:11:28.433Z,17.83
2022-10-01T02:14:01.923Z,17.63
2022-10-01T02:16:32.357Z,17.13
2022-10-01T02:19:02.446Z,19.50
2022-10-01T02:21:51.491Z,18.20
2022-10-01T02:24:22.902Z,19.27
2022-10-01T02:26:51.510Z,19.30
2022-10-01T02:29:20.722Z,18.20
2022-10-01T02:31:49.053Z,18.63
2022-10-01T02:34:20.368Z,18.50
2022-10-01T02:36:49.158Z,19.30
2022-10-01T02:39:17.474Z,18.57
2022-10-01T02:41:46.690Z,19.00
2022-10-01T02:44:16.366Z,20.17
2022-10-01T02:46:46.645Z,19.33
2022-10-01T02:49:14.946Z,18.90
2022-10-01T02:51:47.455Z,19.90
2022-10-01T02:54:17.062Z,19.80
2022-10-01T02:57:02.602Z,19.77
2022-10-01T02:59:30.161Z,19.80
2022-10-01T03:01:57.733Z,19.17
2022-10-01T03:04:26.017Z,20.20
2022-10-01T03:06:54.816Z,18.47
2022-10-01T03:09:22.446Z,18.50
2022-10-01T03:11:50.170Z,18.77
2022-10-01T03:14:17.846Z,19.10
2022-10-01T03:16:45.309Z,16.83
2022-10-01T03:19:12.989Z,17.67
2022-10-01T03:21:40.451Z,17.50
2022-10-01T03:24:09.676Z,17.40
2022-10-01T03:26:37.670Z,17.57
2022-10-01T03:29:06.183Z,17.00
2022-10-01T03:31:34.218Z,16.77
2022-10-01T03:34:02.854Z,17.63
2022-10-01T03:36:30.508Z,17.97
2022-10-01T03:38:58.317Z,17.00
2022-10-01T03:41:27.475Z,16.67
2022-10-01T03:43:59.641Z,16.23
2022-10-01T03:46:28.268Z,17.37
2022-10-01T03:48:56.224Z,16.40
2022-10-01T03:51:24.225Z,16.50
2022-10-01T03:53:51.899Z,16.13
2022-10-01T03:56:19.459Z,16.50
2022-10-01T03:58:48.312Z,16.70
2022-10-01T04:01:16.349Z,16.30
2022-10-01T04:03:44.066Z,16.60
2022-10-01T04:06:11.908Z,16.20
2022-10-01T04:08:39.575Z,16.10
2022-10-01T04:11:07.269Z,15.43
2022-10-01T04:13:35.237Z,16.17
2022-10-01T04:16:04.933Z,15.50
2022-10-01T04:18:32.541Z,15.10
2022-10-01T04:21:00.407Z,15.87
2022-10-01T04:23:28.633Z,15.20
2022-10-01T04:25:58.993Z,15.03
2022-10-01T04:28:26.817Z,14.63
2022-10-01T04:31:14.748Z,15.67
2022-10-01T04:33:43.680Z,14.77
2022-10-01T04:36:11.179Z,14.77
2022-10-01T04:38:39.039Z,14.90
2022-10-01T04:41:06.693Z,15.20
2022-10-01T04:43:34.312Z,14.87
2022-10-01T04:46:02.075Z,14.30
2022-10-01T04:48:29.656Z,14.13
2022-10-01T04:50:58.439Z,14.10
2022-10-01T04:53:26.651Z,14.87
2022-10-01T04:55:54.110Z,13.40
2022-10-01T04:58:21.920Z,13.30
2022-10-01T05:00:49.735Z,13.60
2022-10-01T05:03:17.351Z,12.87
2022-10-01T05:05:44.938Z,14.30
2022-10-01T05:08:14.474Z,12.83
2022-10-01T05:10:42.035Z,12.77
2022-10-01T05:13:10.991Z,12.57
2022-10-01T05:15:38.841Z,13.10
2022-10-01T05:18:06.355Z,13.23
2022-10-01T05:20:34.646Z,12.37
2022-10-01T05:23:03.084Z,11.83
2022-10-01T05:25:32.306Z,11.90
2022-10-01T05:28:05.736Z,11.37
2022-10-01T05:30:34.116Z,11.97
2022-10-01T05:33:02.639Z,11.93
2022-10-01T05:35:30.569Z,11.27
2022-10-01T05:37:59.109Z,10.93
2022-10-01T05:40:27.345Z,10.87
2022-10-01T05:42:58.544Z,12.40
2022-10-01T05:45:27.898Z,10.57
2022-10-01T05:47:59.143Z,11.57
2022-10-01T05:50:27.804Z,10.67
2022-10-01T05:52:55.858Z,11.63
2022-10-01T05:55:24.075Z,11.87
2022-10-01T05:57:57.238Z,10.97
2022-10-01T06:00:28.011Z,10.23
2022-10-01T06:02:56.135Z,10.30
2022-10-01T06:05:24.090Z,10.47
2022-10-01T06:07:51.802Z,10.37
2022-10-01T06:10:19.488Z,10.77
2022-10-01T06:12:48.832Z,10.00
2022-10-01T06:15:18.142Z,9.90
2022-10-01T06:17:46.896Z,9.03
2022-10-01T06:20:15.391Z,9.90
2022-10-01T06:22:43.554Z,9.30
2022-10-01T06:25:12.232Z,9.40
2022-10-01T06:27:39.973Z,9.20
2022-10-01T06:30:08.758Z,9.50
2022-10-01T06:32:37.775Z,9.60
2022-10-01T06:35:05.435Z,8.90
2022-10-01T06:37:33.112Z,8.63
2022-10-01T06:40:00.701Z,8.70
2022-10-01T06:42:28.444Z,8.50
2022-10-01T06:44:56.095Z,8.50
2022-10-01T06:47:23.578Z,9.17
2022-10-01T06:49:52.416Z,8.60
2022-10-01T06:52:38.232Z,8.47
2022-10-01T06:55:06.421Z,8.57
2022-10-01T06:57:34.280Z,9.03
2022-10-01T07:00:02.372Z,10.13
2022-10-01T07:02:30.183Z,8.70
2022-10-01T07:04:59.644Z,8.80
2022-10-01T07:07:30.110Z,8.97
2022-10-01T07:09:58.394Z,8.97
2022-10-01T07:12:26.617Z,8.67
2022-10-01T07:14:54.519Z,9.47
2022-10-01T07:17:22.148Z,10.70
2022-10-01T07:19:49.802Z,19.93
2022-10-01T07:22:19.357Z,10.00
2022-10-01T07:24:47.040Z,9.30
2022-10-01T07:27:14.563Z,9.80
2022-10-01T07:29:42.429Z,10.23
2022-10-01T07:32:10.440Z,9.40
2022-10-01T07:34:40.166Z,8.80
2022-10-01T07:37:08.382Z,9.37
2022-10-01T07:39:37.764Z,8.97
2022-10-01T07:42:06.059Z,8.67
2022-10-01T07:44:33.811Z,8.87
2022-10-01T07:47:01.509Z,8.07
2022-10-01T07:49:29.334Z,8.90
2022-10-01T07:51:58.946Z,8.93
2022-10-01T07:54:26.940Z,8.97
2022-10-01T07:56:56.955Z,8.17
2022-10-01T07:59:24.498Z,8.50
2022-10-01T08:01:52.521Z,9.00
2022-10-01T08:04:38.170Z,8.53
2022-10-01T08:07:06.277Z,8.80
2022-10-01T08:09:33.761Z,8.20
2022-10-01T08:12:04.553Z,8.57
2022-10-01T08:14:32.078Z,9.00
2022-10-01T08:16:59.945Z,8.50
2022-10-01T08:19:27.750Z,8.30
2022-10-01T08:21:55.286Z,8.40
2022-10-01T08:24:23.426Z,8.90
2022-10-01T08:26:56.052Z,8.60
2022-10-01T08:29:24.976Z,8.20
2022-10-01T08:31:52.487Z,8.53
2022-10-01T08:34:20.369Z,8.07
2022-10-01T08:36:50.962Z,7.70
2022-10-01T08:39:18.735Z,8.27
2022-10-01T08:41:51.183Z,7.93
2022-10-01T08:44:20.181Z,7.90
2022-10-01T08:46:50.434Z,8.13
2022-10-01T08:49:21.440Z,7.70
2022-10-01T08:51:50.989Z,7.97
2022-10-01T08:54:29.573Z,7.53
2022-10-01T08:56:58.755Z,7.70
2022-10-01T08:59:31.253Z,7.50
2022-10-01T09:02:00.196Z,7.40
2022-10-01T09:04:28.135Z,7.10
2022-10-01T09:06:59.305Z,7.57
2022-10-01T09:09:33.327Z,6.93
2022-10-01T09:12:06.558Z,6.80
2022-10-01T09:14:39.429Z,7.00
2022-10-01T09:17:13.811Z,6.60
2022-10-01T09:19:54.875Z,6.27
2022-10-01T09:22:28.591Z,5.77
2022-10-01T09:24:59.413Z,5.97
2022-10-01T09:27:27.998Z,6.57
2022-10-01T09:29:57.394Z,5.73
2022-10-01T09:32:28.605Z,5.00
2022-10-01T09:35:04.278Z,5.13
2022-10-01T09:37:38.962Z,5.33
2022-10-01T09:40:14.785Z,4.87
2022-10-01T09:42:42.871Z,5.23
2022-10-01T09:45:12.459Z,5.10
2022-10-01T09:47:43.778Z,4.60
2022-10-01T09:50:14.678Z,3.90
2022-10-01T09:52:42.980Z,4.50
2022-10-01T09:55:18.459Z,3.50
2022-10-01T09:57:48.948Z,3.70
2022-10-01T10:00:19.073Z,3.80
2022-10-01T10:02:49.945Z,3.60
2022-10-01T10:05:19.041Z,4.50
2022-10-01T10:07:47.817Z,4.30
2022-10-01T10:10:24.800Z,4.07
2022-10-01T10:12:56.880Z,4.70
2022-10-01T10:15:26.501Z,5.43
2022-10-01T10:17:56.008Z,5.13
2022-10-01T10:20:30.963Z,5.30
2022-10-01T10:23:08.759Z,5.93
2022-10-01T10:25:36.704Z,5.80
2022-10-01T10:28:05.082Z,6.33
2022-10-01T10:30:33.121Z,7.40
2022-10-01T10:33:05.639Z,7.27
2022-10-01T10:35:33.504Z,8.47
2022-10-01T10:38:01.407Z,8.00
2022-10-01T10:40:31.928Z,9.20
2022-10-01T10:42:59.979Z,11.30
2022-10-01T10:45:31.855Z,8.67
2022-10-01T10:48:00.276Z,8.97
2022-10-01T10:50:31.035Z,9.97
2022-10-01T10:52:59.512Z,10.73
2022-10-01T10:55:28.264Z,10.20
2022-10-01T10:57:57.851Z,10.73
2022-10-01T11:00:27.061Z,11.70
2022-10-01T11:02:56.082Z,12.43
2022-10-01T11:05:24.579Z,11.67
2022-10-01T11:07:55.265Z,12.33
2022-10-01T11:10:29.951Z,12.17
2022-10-01T11:13:06.919Z,11.87
2022-10-01T11:15:45.616Z,10.97
2022-10-01T11:18:21.956Z,12.27
2022-10-01T11:20:54.346Z,11.90
2022-10-01T11:23:36.302Z,12.20
2022-10-01T11:26:11.296Z,12.33
2022-10-01T11:28:45.128Z,11.43
2022-10-01T11:31:16.923Z,10.60
2022-10-01T11:33:50.448Z,9.90
2022-10-01T11:36:25.009Z,12.20
2022-10-01T11:38:58.635Z,9.20
2022-10-01T11:41:30.357Z,9.63
2022-10-01T11:43:58.657Z,9.93
2022-10-01T11:46:29.881Z,8.40
2022-10-01T11:49:02.232Z,9.70
2022-10-01T11:51:32.015Z,9.10
2022-10-01T11:54:02.734Z,8.40
2022-10-01T11:57:00.347Z,9.77
2022-10-01T11:59:32.458Z,10.10
2022-10-01T12:02:04.750Z,9.60
2022-10-01T12:04:35.220Z,7.73
2022-10-01T12:07:05.959Z,8.57
2022-10-01T12:09:40.470Z,8.67
2022-10-01T12:12:09.510Z,8.10
2022-10-01T12:14:40.901Z,7.37
2022-10-01T12:17:13.091Z,7.63
2022-10-01T12:19:43.314Z,7.60
2022-10-01T12:22:12.248Z,8.07
2022-10-01T12:24:42.424Z,7.30
2022-10-01T12:27:21.205Z,6.93
2022-10-01T12:29:53.426Z,8.33
2022-10-01T12:32:26.739Z,7.27
2022-10-01T12:34:59.814Z,7.10
2022-10-01T12:37:33.499Z,6.70
2022-10-01T12:40:15.791Z,6.27
2022-10-01T12:43:04.227Z,7.40
2022-10-01T12:45:39.724Z,7.40
2022-10-01T12:48:11.871Z,7.23
2022-10-01T12:50:46.690Z,8.37
2022-10-01T12:53:23.270Z,6.93
2022-10-01T12:56:04.714Z,7.70
2022-10-01T12:58:49.201Z,8.43
2022-10-01T13:01:22.634Z,7.60
2022-10-01T13:04:03.525Z,10.27
2022-10-01T13:06:37.214Z,8.80
2022-10-01T13:09:10.461Z,8.43
2022-10-01T13:11:48.716Z,8.33
2022-10-01T13:14:18.156Z,7.87
2022-10-01T13:16:54.335Z,8.73
2022-10-01T13:19:25.109Z,8.13
2022-10-01T13:21:57.362Z,8.37
2022-10-01T13:24:29.381Z,8.67
2022-10-01T13:27:01.318Z,8.90
2022-10-01T13:29:34.094Z,7.60
2022-10-01T13:32:02.430Z,8.33
2022-10-01T13:34:35.933Z,8.63
2022-10-01T13:37:13.822Z,8.10
2022-10-01T13:39:42.428Z,8.03
2022-10-01T13:42:15.291Z,7.83
2022-10-01T13:44:43.472Z,7.90
2022-10-01T13:47:13.231Z,7.00
2022-10-01T13:49:42.383Z,7.93
2022-10-01T13:52:19.583Z,6.90
2022-10-01T13:54:48.618Z,8.10
2022-10-01T13:57:27.930Z,6.70
2022-10-01T13:59:59.348Z,7.27
2022-10-01T14:02:32.149Z,7.03
2022-10-01T14:05:06.469Z,5.60
2022-10-01T14:07:36.845Z,6.20
2022-10-01T14:10:04.893Z,6.20
2022-10-01T14:12:53.448Z,5.73
2022-10-01T14:15:52.217Z,5.30
2022-10-01T14:18:23.511Z,6.17
2022-10-01T14:20:53.786Z,6.00
2022-10-01T14:23:24.709Z,6.13
2022-10-01T14:25:55.172Z,7.40
2022-10-01T14:28:31.113Z,6.23
2022-10-01T14:31:02.946Z,4.80
2022-10-01T14:33:44.720Z,5.20
2022-10-01T14:36:16.489Z,4.90
2022-10-01T14:38:44.654Z,5.27
2022-10-01T14:41:17.797Z,4.63
2022-10-01T14:43:47.575Z,5.90
2022-10-01T14:46:16.480Z,4.33
2022-10-01T14:48:44.488Z,5.60
2022-10-01T14:51:24.635Z,5.37
2022-10-01T14:53:53.282Z,4.70
2022-10-01T14:56:21.187Z,5.63
2022-10-01T14:58:53.962Z,4.70
2022-10-01T15:01:22.405Z,4.20
2022-10-01T15:03:50.599Z,4.80
2022-10-01T15:06:19.298Z,5.07
2022-10-01T15:08:47.721Z,4.03
2022-10-01T15:11:17.156Z,4.57
2022-10-01T15:13:46.095Z,4.03
2022-10-01T15:16:15.793Z,3.70
2022-10-01T15:18:47.043Z,5.23
2022-10-01T15:21:17.235Z,3.40
2022-10-01T15:23:45.800Z,3.73
2022-10-01T15:26:14.886Z,4.50
2022-10-01T15:28:44.381Z,3.93
2022-10-01T15:31:12.396Z,5.80
2022-10-01T15:33:42.591Z,5.77
2022-10-01T15:36:14.523Z,4.87
2022-10-01T15:38:44.573Z,8.23
2022-10-01T15:41:30.936Z,8.00
2022-10-01T15:44:00.195Z,5.10
2022-10-01T15:46:33.209Z,5.40
2022-10-01T15:49:19.652Z,4.20
2022-10-01T15:52:10.162Z,3.67
2022-10-01T15:54:38.792Z,4.30
2022-10-01T15:57:06.679Z,3.50
2022-10-01T15:59:35.474Z,4.00
2022-10-01T16:02:08.013Z,4.13
2022-10-01T16:04:36.963Z,4.30
2022-10-01T16:07:04.651Z,4.00
2022-10-01T16:09:33.128Z,3.83
2022-10-01T16:12:03.175Z,4.50
2022-10-01T16:14:32.107Z,4.53
2022-10-01T16:17:17.675Z,4.80
2022-10-01T16:19:47.524Z,4.30
2022-10-01T16:22:16.039Z,4.93
2022-10-01T16:24:44.984Z,3.50
2022-10-01T16:27:18.078Z,3.50
2022-10-01T16:29:51.085Z,3.60
2022-10-01T16:32:18.685Z,3.70
2022-10-01T16:34:47.654Z,4.43
2022-10-01T16:37:15.290Z,4.00
2022-10-01T16:39:42.851Z,3.73
2022-10-01T16:42:23.784Z,4.43
2022-10-01T16:44:52.746Z,3.80
2022-10-01T16:47:20.254Z,3.63
2022-10-01T16:49:49.591Z,4.10
2022-10-01T16:52:17.760Z,4.20
2022-10-01T16:54:47.055Z,3.80
2022-10-01T16:57:15.230Z,4.43
2022-10-01T16:59:42.903Z,4.00
2022-10-01T17:02:11.942Z,4.43
2022-10-01T17:04:39.486Z,4.53
2022-10-01T17:07:09.783Z,4.30
2022-10-01T17:09:37.433Z,5.30
2022-10-01T17:12:04.948Z,4.30
2022-10-01T17:14:32.654Z,5.07
2022-10-01T17:17:00.199Z,5.03
2022-10-01T17:19:27.953Z,6.50
2022-10-01T17:21:56.010Z,5.17
2022-10-01T17:24:25.233Z,4.70
2022-10-01T17:26:54.030Z,4.77
2022-10-01T17:29:21.721Z,5.47
2022-10-01T17:31:53.067Z,5.30
2022-10-01T17:34:21.328Z,5.83
2022-10-01T17:36:48.866Z,6.40
2022-10-01T17:39:16.549Z,7.13
2022-10-01T17:41:45.420Z,5.00
2022-10-01T17:44:13.178Z,6.97
2022-10-01T17:46:40.780Z,6.50
2022-10-01T17:49:08.767Z,6.63
2022-10-01T17:51:36.914Z,7.07
2022-10-01T17:54:04.895Z,6.53
2022-10-01T17:56:33.035Z,5.97
2022-10-01T17:59:02.472Z,5.70
2022-10-01T18:01:30.189Z,6.23
2022-10-01T18:04:00.164Z,5.30
2022-10-01T18:06:28.183Z,5.47
2022-10-01T18:08:56.662Z,5.47
2022-10-01T18:11:25.218Z,5.70
2022-10-01T18:13:53.000Z,6.43
2022-10-01T18:16:22.215Z,5.77
2022-10-01T18:21:43.077Z,6.40
2022-10-01T18:24:10.788Z,7.00
2022-10-01T18:26:38.687Z,6.60
2022-10-01T18:29:06.502Z,5.33
2022-10-01T18:31:36.872Z,5.30
2022-10-01T18:34:06.907Z,3.03
2022-10-01T18:36:40.444Z,4.00
2022-10-01T18:39:11.761Z,3.93
2022-10-01T18:41:41.183Z,4.10
2022-10-01T18:44:10.637Z,4.70
2022-10-01T18:46:52.187Z,4.00
2022-10-01T18:49:28.016Z,4.00
2022-10-01T18:52:02.549Z,3.50
2022-10-01T18:54:53.441Z,3.90
2022-10-01T18:57:27.788Z,4.90
2022-10-01T19:00:02.579Z,4.23
2022-10-01T19:02:40.058Z,5.43
2022-10-01T19:05:26.705Z,5.33
2022-10-01T19:07:58.575Z,5.13
2022-10-01T19:10:31.505Z,5.13
2022-10-01T19:13:03.506Z,5.63
2022-10-01T19:15:37.542Z,5.43
2022-10-01T19:18:24.826Z,5.87
2022-10-01T19:20:59.363Z,8.90
2022-10-01T19:23:52.920Z,7.10
2022-10-01T19:26:23.563Z,5.93
2022-10-01T19:28:58.300Z,5.93
2022-10-01T19:31:30.224Z,7.93
2022-10-01T19:34:01.620Z,6.97
2022-10-01T19:36:34.510Z,6.53
2022-10-01T19:39:05.414Z,7.13
2022-10-01T19:41:38.304Z,7.23
2022-10-01T19:44:10.813Z,7.33
2022-10-01T19:46:39.734Z,10.80
2022-10-01T19:49:14.237Z,6.57
2022-10-01T19:51:45.211Z,17.33
2022-10-01T19:54:16.812Z,6.60
2022-10-01T19:56:45.357Z,6.33
2022-10-01T19:59:14.351Z,5.30
2022-10-01T20:01:47.890Z,6.53
2022-10-01T20:04:21.336Z,5.67
2022-10-01T20:06:52.293Z,5.10
2022-10-01T20:09:24.747Z,4.30
2022-10-01T20:11:56.376Z,4.40
2022-10-01T20:14:41.450Z,4.33
2022-10-01T20:17:15.236Z,3.80
2022-10-01T20:19:44.857Z,3.73
2022-10-01T20:22:19.996Z,4.00
2022-10-01T20:24:50.333Z,4.23
2022-10-01T20:27:22.136Z,4.00
2022-10-01T20:29:52.844Z,4.20
2022-10-01T20:32:23.603Z,3.90
2022-10-01T20:34:58.094Z,4.47
2022-10-01T20:37:38.858Z,5.00
2022-10-01T20:40:12.591Z,4.03
2022-10-01T20:42:41.970Z,4.93
2022-10-01T20:45:16.055Z,6.00
2022-10-01T20:47:49.695Z,4.60
2022-10-01T20:50:19.757Z,5.17
2022-10-01T20:52:53.359Z,4.83
2022-10-01T20:55:26.844Z,6.33
2022-10-01T20:57:56.480Z,11.73
2022-10-01T21:00:25.903Z,4.87
2022-10-01T21:02:57.391Z,4.10
2022-10-01T21:05:27.127Z,9.30
2022-10-01T21:07:59.023Z,6.80
2022-10-01T21:10:38.722Z,5.87
2022-10-01T21:13:08.740Z,4.40
2022-10-01T21:15:43.445Z,4.03
2022-10-01T21:18:17.820Z,6.20
2022-10-01T21:20:48.555Z,14.70
2022-10-01T21:23:26.407Z,6.93
2022-10-01T21:25:58.638Z,4.73
2022-10-01T21:28:34.384Z,7.03
2022-10-01T21:31:09.740Z,8.93
2022-10-01T21:33:39.984Z,6.57
2022-10-01T21:36:11.984Z,4.00
2022-10-01T21:38:45.401Z,4.57
2022-10-01T21:41:21.898Z,4.20
2022-10-01T21:44:11.009Z,3.80
2022-10-01T21:46:41.038Z,4.50
2022-10-01T21:49:10.392Z,4.57
2022-10-01T21:51:45.470Z,4.93
2022-10-01T21:54:21.947Z,3.93
2022-10-01T21:56:56.343Z,4.83
2022-10-01T21:59:32.724Z,5.20
2022-10-01T22:02:05.923Z,4.50
2022-10-01T22:04:38.410Z,4.90
2022-10-01T22:07:12.439Z,4.77
2022-10-01T22:09:43.558Z,6.03
2022-10-01T22:12:12.078Z,3.83
2022-10-01T22:14:40.656Z,4.27
2022-10-01T22:17:12.552Z,5.07
2022-10-01T22:19:42.246Z,4.80
2022-10-01T22:22:10.910Z,4.53
2022-10-01T22:24:43.575Z,4.80
2022-10-01T22:27:14.227Z,4.47
2022-10-01T22:29:47.901Z,4.93
2022-10-01T22:32:18.423Z,4.40
2022-10-01T22:34:49.823Z,5.37
2022-10-01T22:37:19.502Z,5.10
2022-10-01T22:39:49.987Z,7.03
2022-10-01T22:42:21.297Z,5.20
2022-10-01T22:44:49.723Z,4.00
2022-10-01T22:47:35.181Z,6.00
2022-10-01T22:50:07.848Z,4.93
2022-10-01T22:52:40.198Z,4.87
2022-10-01T22:55:16.039Z,4.40
2022-10-01T22:57:56.102Z,4.87
2022-10-01T23:00:24.125Z,4.10
2022-10-01T23:02:57.203Z,4.30
2022-10-01T23:05:34.555Z,6.27
2022-10-01T23:08:04.581Z,4.90
2022-10-01T23:10:35.900Z,6.17
2022-10-01T23:13:12.016Z,4.63
2022-10-01T23:15:43.858Z,6.30
2022-10-01T23:18:19.299Z,5.50
2022-10-01T23:20:54.157Z,5.13
2022-10-01T23:23:26.816Z,7.20
2022-10-01T23:26:03.268Z,4.00
2022-10-01T23:28:39.194Z,6.80
2022-10-01T23:31:09.426Z,6.43
2022-10-01T23:33:44.552Z,4.80
2022-10-01T23:36:18.977Z,3.83
2022-10-01T23:38:54.803Z,7.03
2022-10-01T23:41:24.641Z,4.47
2022-10-01T23:43:54.534Z,5.73
2022-10-01T23:46:23.516Z,5.90
2022-10-01T23:48:54.427Z,5.20
2022-10-01T23:51:23.855Z,4.17
2022-10-01T23:53:54.390Z,5.00
2022-10-01T23:56:41.161Z,5.87
2022-10-01T23:59:13.960Z,4.13
